Time;durP1;ratioP1;P1;durP2;ratioP2;P2;SDS_P1;SDS_P2;PMS_P1;PMS_P2;Temp;Humidity;BMP_temperature;BMP_pressure;BME280_temperature;BME280_humidity;BME280_pressure;Samples;Min_cycle;Max_cycle;Signal;HPM_P1;HPM_P2
2022/06/03 00:01:49;;;;;;;0.00;0.00;;;;;;;;;;5050343;28;20021;-67
2022/06/03 00:04:33;;;;;;;0.00;0.00;;;;;;;;;;5064921;28;20082;-68
2022/06/03 00:07:08;;;;;;;0.00;0.00;;;;;;;;;;5059317;28;20028;-66
2022/06/03 00:09:39;;;;;;;0.00;0.00;;;;;;;;;;5057262;28;20109;-66
2022/06/03 00:12:24;;;;;;;0.00;0.00;;;;;;;;;;5055269;28;20550;-65
2022/06/03 00:15:04;;;;;;;0.00;0.00;;;;;;;;;;5061302;28;20104;-65
2022/06/03 00:17:56;;;;;;;0.00;0.00;;;;;;;;;;5064664;28;20044;-64
2022/06/03 00:20:24;;;;;;;0.00;0.00;;;;;;;;;;5055213;28;20124;-64
2022/06/03 00:22:49;;;;;;;0.00;0.00;;;;;;;;;;5055623;28;20067;-67
2022/06/03 00:25:27;;;;;;;0.00;0.00;;;;;;;;;;5051970;28;20028;-67
2022/06/03 00:27:56;;;;;;;0.00;0.00;;;;;;;;;;5059748;28;20032;-67
2022/06/03 00:30:42;;;;;;;0.00;0.00;;;;;;;;;;5055605;28;20132;-67
2022/06/03 00:33:26;;;;;;;0.00;0.00;;;;;;;;;;5043879;28;20381;-67
2022/06/03 00:36:00;;;;;;;0.00;0.00;;;;;;;;;;5052138;28;20036;-66
2022/06/03 00:38:25;;;;;;;0.20;0.20;;;;;;;;;;5043713;28;20028;-66
2022/06/03 00:41:11;;;;;;;0.10;0.10;;;;;;;;;;5057630;28;20059;-65
2022/06/03 00:43:40;;;;;;;0.00;0.00;;;;;;;;;;5055276;28;20624;-65
2022/06/03 00:46:13;;;;;;;0.00;0.00;;;;;;;;;;5059078;28;20025;-63
2022/06/03 00:48:56;;;;;;;0.00;0.00;;;;;;;;;;5051208;28;20063;-66
2022/06/03 00:51:34;;;;;;;0.20;0.20;;;;;;;;;;5057111;28;20385;-64
2022/06/03 00:53:59;;;;;;;0.00;0.00;;;;;;;;;;5040686;28;20025;-66
2022/06/03 00:56:33;;;;;;;0.00;0.00;;;;;;;;;;5052201;28;20366;-66
2022/06/03 00:59:05;;;;;;;0.00;0.00;;;;;;;;;;5060938;28;20751;-67
2022/06/03 01:01:33;;;;;;;0.00;0.00;;;;;;;;;;5058611;28;20055;-67
2022/06/03 01:04:10;;;;;;;0.00;0.00;;;;;;;;;;5064089;28;20040;-67
2022/06/03 01:06:46;;;;;;;0.00;0.00;;;;;;;;;;5055526;28;20048;-68
2022/06/03 01:09:17;;;;;;;0.00;0.00;;;;;;;;;;5053564;28;20449;-68
2022/06/03 01:11:55;;;;;;;0.00;0.00;;;;;;;;;;5057468;28;20053;-67
2022/06/03 01:14:20;;;;;;;0.00;0.00;;;;;;;;;;5057173;28;20023;-68
2022/06/03 01:17:04;;;;;;;0.00;0.00;;;;;;;;;;5067234;28;20424;-66
2022/06/03 01:19:32;;;;;;;0.00;0.00;;;;;;;;;;5047806;28;20074;-67
2022/06/03 01:22:00;;;;;;;0.00;0.00;;;;;;;;;;5072692;28;20368;-68
2022/06/03 01:24:35;;;;;;;0.00;0.00;;;;;;;;;;5053065;28;20414;-68
2022/06/03 01:27:11;;;;;;;0.00;0.00;;;;;;;;;;5052541;28;20036;-67
2022/06/03 01:29:36;;;;;;;0.00;0.00;;;;;;;;;;5061452;28;20041;-70
2022/06/03 01:32:17;;;;;;;0.00;0.00;;;;;;;;;;5042456;28;20491;-69
2022/06/03 01:34:42;;;;;;;0.00;0.00;;;;;;;;;;5064003;28;20259;-69
2022/06/03 01:37:07;;;;;;;0.00;0.00;;;;;;;;;;5059677;28;20428;-69
2022/06/03 01:39:40;;;;;;;0.00;0.00;;;;;;;;;;5058644;28;20266;-68
2022/06/03 01:42:15;;;;;;;0.00;0.00;;;;;;;;;;5063903;28;20028;-68
2022/06/03 01:44:58;;;;;;;0.00;0.00;;;;;;;;;;5057768;28;20415;-67
2022/06/03 01:47:29;;;;;;;0.00;0.00;;;;;;;;;;5058932;28;20513;-68
2022/06/03 01:50:13;;;;;;;0.00;0.00;;;;;;;;;;5055430;28;20032;-70
2022/06/03 01:52:57;;;;;;;0.00;0.00;;;;;;;;;;5057788;28;20028;-70
2022/06/03 01:55:25;;;;;;;0.00;0.00;;;;;;;;;;5059410;28;20017;-70
2022/06/03 01:57:50;;;;;;;0.00;0.00;;;;;;;;;;5057546;28;20036;-70
2022/06/03 02:00:34;;;;;;;0.00;0.00;;;;;;;;;;5063430;28;20025;-69
2022/06/03 02:03:08;;;;;;;0.00;0.00;;;;;;;;;;5062007;28;20020;-68
2022/06/03 02:05:52;;;;;;;0.00;0.00;;;;;;;;;;5063080;28;20366;-67
2022/06/03 02:08:31;;;;;;;0.00;0.00;;;;;;;;;;5068074;28;20415;-67
2022/06/03 02:11:02;;;;;;;0.00;0.00;;;;;;;;;;5062714;28;20103;-68
2022/06/03 02:13:41;;;;;;;0.10;0.10;;;;;;;;;;5060929;28;20630;-68
2022/06/03 02:16:07;;;;;;;;;;;;;;;;;;5043451;28;20031;-67
2022/06/03 02:18:41;;;;;;;0.00;0.00;;;;;;;;;;5046804;28;19908;-66
2022/06/03 02:21:15;;;;;;;0.00;0.00;;;;;;;;;;5048141;28;20029;-68
2022/06/03 02:23:59;;;;;;;0.00;0.00;;;;;;;;;;5057071;28;20531;-69
2022/06/03 02:26:43;;;;;;;0.00;0.00;;;;;;;;;;5062712;28;20025;-68
2022/06/03 02:32:00;;;;;;;0.00;0.00;;;;;;;;;;5063359;28;20487;-71
2022/06/03 02:34:37;;;;;;;0.00;0.00;;;;;;;;;;5050008;28;20113;-68
2022/06/03 02:37:21;;;;;;;0.22;0.22;;;;;;;;;;5059138;28;20017;-68
2022/06/03 02:40:05;;;;;;;0.05;0.05;;;;;;;;;;5061607;28;20043;-71
2022/06/03 02:42:48;;;;;;;0.00;0.00;;;;;;;;;;5059282;28;20096;-69
2022/06/03 02:45:20;;;;;;;0.00;0.00;;;;;;;;;;5033067;28;20477;-72
2022/06/03 02:47:49;;;;;;;0.20;0.20;;;;;;;;;;5032247;28;20021;-72
2022/06/03 02:50:14;;;;;;;;;;;;;;;;;;5051534;28;20350;-72
2022/06/03 02:52:46;;;;;;;0.00;0.00;;;;;;;;;;5050573;28;19954;-71
2022/06/03 02:55:34;;;;;;;0.25;0.25;;;;;;;;;;5059054;28;20291;-72
2022/06/03 02:58:11;;;;;;;0.00;0.00;;;;;;;;;;5056810;28;20096;-71
2022/06/03 03:00:42;;;;;;;0.10;0.10;;;;;;;;;;5061134;28;20028;-70
2022/06/03 03:03:26;;;;;;;0.00;0.00;;;;;;;;;;5066347;28;20108;-71
2022/06/03 03:06:11;;;;;;;0.00;0.00;;;;;;;;;;5065493;28;20074;-72
2022/06/03 03:08:55;;;;;;;0.00;0.00;;;;;;;;;;5047315;28;20103;-71
2022/06/03 03:11:21;;;;;;;0.00;0.00;;;;;;;;;;5059983;28;20039;-71
2022/06/03 03:13:49;;;;;;;0.00;0.00;;;;;;;;;;5056038;28;20020;-71
2022/06/03 03:16:28;;;;;;;0.10;0.10;;;;;;;;;;5065609;28;20290;-71
2022/06/03 03:19:06;;;;;;;0.00;0.00;;;;;;;;;;5060204;28;20108;-72
2022/06/03 03:21:35;;;;;;;0.00;0.00;;;;;;;;;;5053367;28;20059;-69
2022/06/03 03:24:18;;;;;;;0.00;0.00;;;;;;;;;;5065159;28;20036;-68
2022/06/03 03:26:44;;;;;;;0.00;0.00;;;;;;;;;;5048356;28;20025;-69
2022/06/03 03:29:19;;;;;;;0.00;0.00;;;;;;;;;;5066115;28;20074;-70
2022/06/03 03:31:45;;;;;;;0.00;0.00;;;;;;;;;;5061560;28;20028;-70
2022/06/03 03:34:27;;;;;;;0.00;0.00;;;;;;;;;;5036283;28;20017;-70
2022/06/03 03:37:10;;;;;;;0.00;0.00;;;;;;;;;;5060902;28;20052;-70
2022/06/03 03:39:39;;;;;;;0.00;0.00;;;;;;;;;;5058777;28;20028;-69
2022/06/03 03:42:19;;;;;;;0.52;0.52;;;;;;;;;;5064607;28;20381;-69
2022/06/03 03:45:03;;;;;;;0.00;0.00;;;;;;;;;;5060838;28;20027;-71
2022/06/03 03:47:31;;;;;;;0.25;0.25;;;;;;;;;;5042278;28;20100;-70
2022/06/03 03:49:56;;;;;;;0.00;0.00;;;;;;;;;;5053328;28;20031;-72
2022/06/03 03:52:24;;;;;;;0.30;0.30;;;;;;;;;;5054582;28;20017;-73
2022/06/03 03:54:52;;;;;;;0.00;0.00;;;;;;;;;;5064786;28;20259;-73
2022/06/03 03:57:21;;;;;;;4.50;0.30;;;;;;;;;;5035624;28;20111;-71
2022/06/03 04:00:06;;;;;;;0.05;0.05;;;;;;;;;;5055564;28;20029;-72
2022/06/03 04:02:38;;;;;;;0.00;0.00;;;;;;;;;;5053645;28;20384;-72
2022/06/03 04:05:23;;;;;;;0.30;0.30;;;;;;;;;;5058472;28;20027;-70
2022/06/03 04:08:02;;;;;;;0.15;0.10;;;;;;;;;;5053126;28;20016;-71
2022/06/03 04:10:28;;;;;;;0.10;0.10;;;;;;;;;;5048124;28;20543;-69
2022/06/03 04:12:53;;;;;;;0.00;0.00;;;;;;;;;;5038570;28;20021;-69
2022/06/03 04:15:33;;;;;;;0.00;0.00;;;;;;;;;;5059249;28;20060;-71
2022/06/03 04:18:17;;;;;;;0.00;0.00;;;;;;;;;;5051522;28;20263;-68
2022/06/03 04:21:01;;;;;;;0.00;0.00;;;;;;;;;;5039491;28;20024;-69
2022/06/03 04:23:32;;;;;;;0.00;0.00;;;;;;;;;;5053135;28;20039;-70
2022/06/03 04:26:08;;;;;;;0.65;0.65;;;;;;;;;;5058775;28;20024;-71
2022/06/03 04:28:36;;;;;;;0.00;0.00;;;;;;;;;;5059952;28;20059;-71
2022/06/03 04:31:07;;;;;;;0.00;0.00;;;;;;;;;;5064611;28;20033;-69
2022/06/03 04:33:52;;;;;;;0.00;0.00;;;;;;;;;;5034210;28;20029;-68
2022/06/03 04:36:36;;;;;;;0.00;0.00;;;;;;;;;;5057369;28;20035;-70
2022/06/03 04:39:20;;;;;;;0.00;0.00;;;;;;;;;;5058502;28;20028;-69
2022/06/03 04:41:45;;;;;;;0.10;0.10;;;;;;;;;;5060427;28;20032;-70
2022/06/03 04:44:38;;;;;;;0.00;0.00;;;;;;;;;;5062136;28;20016;-71
2022/06/03 04:47:26;;;;;;;0.10;0.10;;;;;;;;;;5056925;28;20484;-67
2022/06/03 04:50:10;;;;;;;0.00;0.00;;;;;;;;;;5046364;28;20036;-69
2022/06/03 04:52:47;;;;;;;0.00;0.00;;;;;;;;;;5053587;28;20025;-68
2022/06/03 04:55:15;;;;;;;0.00;0.00;;;;;;;;;;5057871;28;20501;-69
2022/06/03 04:58:01;;;;;;;0.10;0.10;;;;;;;;;;5040169;28;20035;-65
2022/06/03 05:00:35;;;;;;;0.57;0.57;;;;;;;;;;5036219;28;20068;-65
2022/06/03 05:03:20;;;;;;;0.00;0.00;;;;;;;;;;5061312;28;20029;-64
2022/06/03 05:05:52;;;;;;;0.32;0.32;;;;;;;;;;5040221;28;20166;-64
2022/06/03 05:08:49;;;;;;;0.00;0.00;;;;;;;;;;5056200;28;20024;-64
2022/06/03 05:11:28;;;;;;;0.13;0.13;;;;;;;;;;5058881;28;20035;-64
2022/06/03 05:14:12;;;;;;;0.00;0.00;;;;;;;;;;5065151;28;20033;-64
2022/06/03 05:16:50;;;;;;;0.00;0.00;;;;;;;;;;5053321;28;20134;-62
2022/06/03 05:19:18;;;;;;;1.02;1.02;;;;;;;;;;5060162;28;20025;-63
2022/06/03 05:21:46;;;;;;;1.45;1.30;;;;;;;;;;5052253;28;20009;-62
2022/06/03 05:24:29;;;;;;;0.00;0.00;;;;;;;;;;5056763;28;20027;-64
2022/06/03 05:27:10;;;;;;;0.30;0.30;;;;;;;;;;5057771;28;20025;-63
2022/06/03 05:29:44;;;;;;;0.00;0.00;;;;;;;;;;5038909;28;20075;-62
2022/06/03 05:32:10;;;;;;;1.02;0.73;;;;;;;;;;5069430;28;20464;-62
2022/06/03 05:34:47;;;;;;;0.00;0.00;;;;;;;;;;5064333;28;20025;-63
2022/06/03 05:37:31;;;;;;;0.00;0.00;;;;;;;;;;5062033;28;20054;-63
2022/06/03 05:39:59;;;;;;;6.13;2.55;;;;;;;;;;5063375;28;20059;-63
2022/06/03 05:42:24;;;;;;;0.00;0.00;;;;;;;;;;5067233;28;20021;-63
2022/06/03 05:44:52;;;;;;;0.00;0.00;;;;;;;;;;5048006;28;20351;-61
2022/06/03 05:47:18;;;;;;;0.00;0.00;;;;;;;;;;5055802;28;20083;-63
2022/06/03 05:49:58;;;;;;;0.00;0.00;;;;;;;;;;5065831;28;20029;-64
2022/06/03 05:52:35;;;;;;;0.30;0.20;;;;;;;;;;5063932;28;20013;-63
2022/06/03 05:55:06;;;;;;;0.00;0.00;;;;;;;;;;5066668;28;20067;-63
2022/06/03 05:57:38;;;;;;;0.00;0.00;;;;;;;;;;5054452;28;20069;-63
2022/06/03 06:00:23;;;;;;;7.68;3.65;;;;;;;;;;5068445;28;20033;-63
2022/06/03 06:03:07;;;;;;;0.00;0.00;;;;;;;;;;5050574;28;20029;-64
2022/06/03 06:05:35;;;;;;;3.70;2.72;;;;;;;;;;5062969;28;20043;-62
2022/06/03 06:08:12;;;;;;;0.00;0.00;;;;;;;;;;5069396;28;20024;-63
2022/06/03 06:10:56;;;;;;;0.10;0.10;;;;;;;;;;5068021;28;20640;-63
2022/06/03 06:13:21;;;;;;;0.00;0.00;;;;;;;;;;5055745;28;20025;-63
2022/06/03 06:16:25;;;;;;;0.38;0.38;;;;;;;;;;5055657;28;20013;-62
2022/06/03 06:19:05;;;;;;;0.20;0.20;;;;;;;;;;4967581;28;20023;-63
2022/06/03 06:21:30;;;;;;;0.00;0.00;;;;;;;;;;4969221;28;20027;-62
2022/06/03 06:23:55;;;;;;;0.00;0.00;;;;;;;;;;4968825;28;20086;-63
2022/06/03 06:26:30;;;;;;;0.00;0.00;;;;;;;;;;4968908;28;20309;-63
2022/06/03 06:28:55;;;;;;;0.10;0.10;;;;;;;;;;4968933;28;20289;-63
2022/06/03 06:31:39;;;;;;;0.00;0.00;;;;;;;;;;4952883;28;20042;-63
2022/06/03 06:34:10;;;;;;;0.00;0.00;;;;;;;;;;4968856;28;20037;-62
2022/06/03 06:36:48;;;;;;;0.03;0.03;;;;;;;;;;4967630;28;20039;-62
2022/06/03 06:39:13;;;;;;;0.00;0.00;;;;;;;;;;4967466;28;20033;-64
2022/06/03 06:42:01;;;;;;;0.00;0.00;;;;;;;;;;4950644;28;20026;-65
2022/06/03 06:44:46;;;;;;;0.10;0.10;;;;;;;;;;4969072;28;20500;-66
2022/06/03 06:47:11;;;;;;;0.10;0.10;;;;;;;;;;4967438;28;20035;-67
2022/06/03 06:49:43;;;;;;;0.00;0.00;;;;;;;;;;5008438;28;20059;-67
2022/06/03 06:52:08;;;;;;;0.00;0.00;;;;;;;;;;5047440;28;20295;-62
2022/06/03 06:54:52;;;;;;;0.00;0.00;;;;;;;;;;5049341;28;20707;-62
2022/06/03 06:57:17;;;;;;;0.00;0.00;;;;;;;;;;5055070;28;20269;-62
2022/06/03 06:59:49;;;;;;;0.00;0.00;;;;;;;;;;5066385;28;20020;-60
2022/06/03 07:02:33;;;;;;;0.00;0.00;;;;;;;;;;5053332;28;20520;-64
2022/06/03 07:05:01;;;;;;;0.10;0.10;;;;;;;;;;5055529;28;20108;-64
2022/06/03 07:07:47;;;;;;;0.00;0.00;;;;;;;;;;5057667;28;20432;-64
2022/06/03 07:10:31;;;;;;;0.00;0.00;;;;;;;;;;5043176;28;20068;-63
2022/06/03 07:13:00;;;;;;;0.00;0.00;;;;;;;;;;5056506;28;20016;-63
2022/06/03 07:15:31;;;;;;;0.17;0.17;;;;;;;;;;5049603;28;20025;-64
2022/06/03 07:20:44;;;;;;;0.00;0.00;;;;;;;;;;5061127;28;20401;-64
2022/06/03 07:23:11;;;;;;;;;;;;;;;;;;5059518;28;20024;-64
2022/06/03 07:25:46;;;;;;;1.25;0.15;;;;;;;;;;5049576;28;19917;-64
2022/06/03 07:28:25;;;;;;;0.00;0.00;;;;;;;;;;5053951;28;20017;-65
2022/06/03 07:30:57;;;;;;;0.00;0.00;;;;;;;;;;5060666;28;20542;-64
2022/06/03 07:33:46;;;;;;;0.00;0.00;;;;;;;;;;5061853;28;20747;-66
2022/06/03 07:36:14;;;;;;;0.00;0.00;;;;;;;;;;5040801;28;20481;-64
2022/06/03 07:38:54;;;;;;;0.00;0.00;;;;;;;;;;5054820;28;20025;-64
2022/06/03 07:41:36;;;;;;;0.00;0.00;;;;;;;;;;5055919;28;20020;-63
2022/06/03 07:44:08;;;;;;;0.00;0.00;;;;;;;;;;5045080;28;20021;-64
2022/06/03 07:46:50;;;;;;;0.00;0.00;;;;;;;;;;5047193;28;20025;-63
2022/06/03 07:49:16;;;;;;;0.00;0.00;;;;;;;;;;5049226;28;20040;-64
2022/06/03 07:51:45;;;;;;;0.30;0.30;;;;;;;;;;5060426;28;20047;-63
2022/06/03 07:54:11;;;;;;;0.00;0.00;;;;;;;;;;5051996;28;20074;-63
2022/06/03 07:56:40;;;;;;;0.00;0.00;;;;;;;;;;5055486;28;20013;-64
2022/06/03 07:59:23;;;;;;;0.00;0.00;;;;;;;;;;5055366;28;20457;-64
2022/06/03 08:01:59;;;;;;;0.00;0.00;;;;;;;;;;5047213;28;20032;-63
2022/06/03 08:04:29;;;;;;;0.00;0.00;;;;;;;;;;5059587;28;20381;-64
2022/06/03 08:12:29;;;;;;;0.00;0.00;;;;;;;;;;5065011;28;20028;-64
2022/06/03 08:14:54;;;;;;;0.00;0.00;;;;;;;;;;5060380;28;20020;-64
2022/06/03 08:17:19;;;;;;;0.00;0.00;;;;;;;;;;5058416;28;20020;-66
2022/06/03 08:19:45;;;;;;;0.00;0.00;;;;;;;;;;5040088;28;20378;-65
2022/06/03 08:22:12;;;;;;;0.00;0.00;;;;;;;;;;5063946;28;20028;-66
2022/06/03 08:24:50;;;;;;;0.00;0.00;;;;;;;;;;5062738;28;20028;-65
2022/06/03 08:27:23;;;;;;;0.00;0.00;;;;;;;;;;5058424;28;20100;-65
2022/06/03 08:29:55;;;;;;;0.10;0.10;;;;;;;;;;5063601;28;20063;-64
2022/06/03 08:32:27;;;;;;;0.00;0.00;;;;;;;;;;5047303;28;20488;-65
2022/06/03 08:34:54;;;;;;;0.22;0.22;;;;;;;;;;5058863;28;20016;-66
2022/06/03 08:37:33;;;;;;;0.00;0.00;;;;;;;;;;5051321;28;20032;-65
2022/06/03 08:39:58;;;;;;;;;;;;;;;;;;5057712;28;20029;-64
2022/06/03 08:42:42;;;;;;;0.00;0.00;;;;;;;;;;5057113;28;19909;-64
2022/06/03 08:45:07;;;;;;;0.00;0.00;;;;;;;;;;5062108;28;20016;-65
2022/06/03 08:47:38;;;;;;;0.07;0.07;;;;;;;;;;5056855;28;20478;-65
2022/06/03 08:50:06;;;;;;;0.10;0.10;;;;;;;;;;5064124;28;20290;-64
2022/06/03 08:52:40;;;;;;;0.00;0.00;;;;;;;;;;5066582;28;20028;-65
2022/06/03 08:55:12;;;;;;;0.00;0.00;;;;;;;;;;5057985;28;20462;-64
2022/06/03 08:57:40;;;;;;;0.00;0.00;;;;;;;;;;5057893;28;20012;-64
2022/06/03 09:00:12;;;;;;;0.55;0.55;;;;;;;;;;5062982;28;20558;-64
2022/06/03 09:02:54;;;;;;;0.60;0.35;;;;;;;;;;5056891;28;20029;-64
2022/06/03 09:05:22;;;;;;;0.00;0.00;;;;;;;;;;5051575;28;20079;-64
2022/06/03 09:07:59;;;;;;;0.00;0.00;;;;;;;;;;5054317;28;20017;-64
2022/06/03 09:10:40;;;;;;;0.00;0.00;;;;;;;;;;5058407;28;20118;-65
2022/06/03 09:13:08;;;;;;;0.00;0.00;;;;;;;;;;5062780;28;20465;-65
2022/06/03 09:15:36;;;;;;;0.20;0.10;;;;;;;;;;5032158;28;20024;-64
2022/06/03 09:18:06;;;;;;;0.00;0.00;;;;;;;;;;5057577;28;20024;-65
2022/06/03 09:20:47;;;;;;;0.00;0.00;;;;;;;;;;5063422;28;20032;-64
2022/06/03 09:23:16;;;;;;;0.00;0.00;;;;;;;;;;5053978;28;20074;-64
2022/06/03 09:25:43;;;;;;;0.00;0.00;;;;;;;;;;5059373;28;20162;-63
2022/06/03 09:28:13;;;;;;;0.22;0.22;;;;;;;;;;5065540;28;20125;-64
2022/06/03 09:30:39;;;;;;;0.10;0.10;;;;;;;;;;5062572;28;20604;-64
2022/06/03 09:33:06;;;;;;;0.00;0.00;;;;;;;;;;5059095;28;20100;-63
2022/06/03 09:35:34;;;;;;;0.00;0.00;;;;;;;;;;5049263;28;20481;-63
2022/06/03 09:38:00;;;;;;;0.00;0.00;;;;;;;;;;5063100;28;20028;-65
2022/06/03 09:40:31;;;;;;;0.10;0.10;;;;;;;;;;5054651;28;20832;-64
2022/06/03 09:43:19;;;;;;;0.20;0.20;;;;;;;;;;5059070;28;20045;-63
2022/06/03 09:45:46;;;;;;;1.77;0.65;;;;;;;;;;5043817;28;20401;-65
2022/06/03 09:48:20;;;;;;;0.00;0.00;;;;;;;;;;5059485;28;20039;-65
2022/06/03 09:50:47;;;;;;;0.00;0.00;;;;;;;;;;5036768;28;20021;-64
2022/06/03 09:53:13;;;;;;;1.45;1.45;;;;;;;;;;5042628;28;20081;-64
2022/06/03 09:55:44;;;;;;;0.00;0.00;;;;;;;;;;5058315;28;20548;-64
2022/06/03 09:58:12;;;;;;;0.00;0.00;;;;;;;;;;5058863;28;20024;-64
2022/06/03 10:00:47;;;;;;;0.00;0.00;;;;;;;;;;5062277;28;20419;-64
2022/06/03 10:03:13;;;;;;;0.15;0.15;;;;;;;;;;5039640;28;20028;-65
2022/06/03 10:05:39;;;;;;;0.00;0.00;;;;;;;;;;5049987;28;20081;-64
2022/06/03 10:08:06;;;;;;;0.00;0.00;;;;;;;;;;5062946;28;20108;-64
2022/06/03 10:13:16;;;;;;;0.00;0.00;;;;;;;;;;5065216;28;20027;-64
2022/06/03 10:15:46;;;;;;;0.00;0.00;;;;;;;;;;5060709;28;20024;-64
2022/06/03 10:18:23;;;;;;;0.57;0.57;;;;;;;;;;5065993;28;20013;-64
2022/06/03 10:20:50;;;;;;;0.30;0.30;;;;;;;;;;5058020;28;20393;-64
2022/06/03 10:23:18;;;;;;;0.00;0.00;;;;;;;;;;5061128;28;20360;-64
2022/06/03 10:25:46;;;;;;;0.00;0.00;;;;;;;;;;5048959;28;20438;-65
2022/06/03 10:28:12;;;;;;;0.00;0.00;;;;;;;;;;5060304;28;20385;-65
2022/06/03 10:30:41;;;;;;;0.00;0.00;;;;;;;;;;5055833;28;20032;-64
2022/06/03 10:33:06;;;;;;;0.77;0.77;;;;;;;;;;5056906;28;20033;-65
2022/06/03 10:35:39;;;;;;;0.38;0.38;;;;;;;;;;5061691;28;20029;-64
2022/06/03 10:38:06;;;;;;;0.13;0.13;;;;;;;;;;5056074;28;20365;-64
2022/06/03 10:40:32;;;;;;;0.00;0.00;;;;;;;;;;5054171;28;20029;-64
2022/06/03 10:42:59;;;;;;;0.22;0.20;;;;;;;;;;5051051;28;20102;-63
2022/06/03 10:45:34;;;;;;;0.00;0.00;;;;;;;;;;5054535;28;20407;-64
2022/06/03 10:48:00;;;;;;;0.43;0.43;;;;;;;;;;5052960;28;20020;-63
2022/06/03 10:50:38;;;;;;;0.00;0.00;;;;;;;;;;5051184;28;20134;-64
2022/06/03 11:01:25;;;;;;;0.37;0.37;;;;;;;;;;5049099;28;20086;-65
2022/06/03 11:03:51;;;;;;;0.00;0.00;;;;;;;;;;5048054;28;20675;-63
2022/06/03 11:06:22;;;;;;;0.00;0.00;;;;;;;;;;5049970;28;20104;-65
2022/06/03 11:08:53;;;;;;;0.00;0.00;;;;;;;;;;5061618;28;20066;-64
2022/06/03 11:11:38;;;;;;;0.00;0.00;;;;;;;;;;5041578;28;20120;-63
2022/06/03 11:14:22;;;;;;;0.00;0.00;;;;;;;;;;5066409;28;20036;-64
2022/06/03 11:16:56;;;;;;;0.00;0.00;;;;;;;;;;5056186;28;21997;-65
2022/06/03 11:19:21;;;;;;;0.80;0.80;;;;;;;;;;5049408;28;20029;-64
2022/06/03 11:21:46;;;;;;;0.30;0.30;;;;;;;;;;5050152;28;20046;-63
2022/06/03 11:24:12;;;;;;;0.00;0.00;;;;;;;;;;5050202;28;20025;-63
2022/06/03 11:26:41;;;;;;;0.00;0.00;;;;;;;;;;5031149;28;20259;-64
2022/06/03 11:29:07;;;;;;;;;;;;;;;;;;5048198;28;20171;-63
2022/06/03 11:31:35;;;;;;;0.68;0.68;;;;;;;;;;5052095;28;20371;-66
2022/06/03 11:34:20;;;;;;;0.00;0.00;;;;;;;;;;5052556;28;20070;-62
2022/06/03 11:36:56;;;;;;;0.00;0.00;;;;;;;;;;5057775;28;20416;-63
2022/06/03 11:39:24;;;;;;;0.00;0.00;;;;;;;;;;5057417;28;20033;-62
2022/06/03 11:41:53;;;;;;;0.00;0.00;;;;;;;;;;5051414;28;20170;-63
2022/06/03 11:44:25;;;;;;;0.30;0.30;;;;;;;;;;5058162;28;20467;-65
2022/06/03 11:46:58;;;;;;;0.10;0.08;;;;;;;;;;5056740;28;20588;-64
2022/06/03 11:49:24;;;;;;;0.00;0.00;;;;;;;;;;5058215;28;20186;-63
2022/06/03 11:51:49;;;;;;;1.25;0.57;;;;;;;;;;5051581;28;21552;-64
2022/06/03 11:54:16;;;;;;;0.00;0.00;;;;;;;;;;5052162;28;20028;-63
2022/06/03 11:56:43;;;;;;;0.00;0.00;;;;;;;;;;5046066;28;20469;-62
2022/06/03 11:59:30;;;;;;;0.00;0.00;;;;;;;;;;5039927;28;20056;-62
2022/06/03 12:02:02;;;;;;;0.00;0.00;;;;;;;;;;5045161;28;20037;-60
2022/06/03 12:04:34;;;;;;;0.00;0.00;;;;;;;;;;5051408;28;20028;-62
2022/06/03 12:07:05;;;;;;;0.17;0.17;;;;;;;;;;5037531;28;20024;-63
2022/06/03 12:09:37;;;;;;;5.00;0.17;;;;;;;;;;5049726;28;20032;-63
2022/06/03 12:14:51;;;;;;;;;;;;;;;;;;5047451;28;20500;-64
2022/06/03 12:17:16;;;;;;;0.00;0.00;;;;;;;;;;5047885;28;19983;-61
2022/06/03 12:19:48;;;;;;;0.00;0.00;;;;;;;;;;5057039;28;20496;-62
2022/06/03 12:22:13;;;;;;;0.00;0.00;;;;;;;;;;5062382;28;20032;-63
2022/06/03 12:24:40;;;;;;;0.57;0.57;;;;;;;;;;5059387;28;20020;-63
2022/06/03 12:27:10;;;;;;;0.00;0.00;;;;;;;;;;5055808;28;20343;-63
2022/06/03 12:29:38;;;;;;;1.95;0.60;;;;;;;;;;5046325;28;20087;-62
2022/06/03 12:32:12;;;;;;;0.30;0.30;;;;;;;;;;5058614;28;20095;-62
2022/06/03 12:34:38;;;;;;;0.00;0.00;;;;;;;;;;5063161;28;20027;-61
2022/06/03 12:37:22;;;;;;;0.00;0.00;;;;;;;;;;5053313;28;20021;-62
2022/06/03 12:40:02;;;;;;;0.28;0.17;;;;;;;;;;5033732;28;20028;-62
2022/06/03 12:42:28;;;;;;;0.10;0.10;;;;;;;;;;5059284;28;20107;-63
2022/06/03 12:44:56;;;;;;;0.35;0.35;;;;;;;;;;5052256;28;20148;-62
2022/06/03 12:47:23;;;;;;;0.20;0.20;;;;;;;;;;5058944;28;20029;-62
2022/06/03 12:49:50;;;;;;;0.00;0.00;;;;;;;;;;5055569;28;20020;-62
2022/06/03 12:52:21;;;;;;;0.40;0.40;;;;;;;;;;5047117;28;20375;-61
2022/06/03 12:54:46;;;;;;;1.17;0.25;;;;;;;;;;5048050;28;20398;-62
2022/06/03 12:57:37;;;;;;;0.20;0.20;;;;;;;;;;5049277;28;20018;-62
2022/06/03 13:00:05;;;;;;;0.15;0.15;;;;;;;;;;5014243;28;20033;-61
2022/06/03 13:02:32;;;;;;;0.00;0.00;;;;;;;;;;5046980;28;20379;-62
2022/06/03 13:04:58;;;;;;;0.00;0.00;;;;;;;;;;5054154;28;20458;-62
2022/06/03 13:07:26;;;;;;;0.00;0.00;;;;;;;;;;5061006;28;20034;-63
2022/06/03 13:09:51;;;;;;;0.00;0.00;;;;;;;;;;5041419;28;20422;-63
2022/06/03 13:12:25;;;;;;;0.32;0.32;;;;;;;;;;5064595;28;20067;-62
2022/06/03 13:14:51;;;;;;;0.00;0.00;;;;;;;;;;5061085;28;20031;-62
2022/06/03 13:17:35;;;;;;;0.73;0.67;;;;;;;;;;5057662;28;20100;-62
2022/06/03 13:20:00;;;;;;;0.35;0.35;;;;;;;;;;5048059;28;20624;-61
2022/06/03 13:22:27;;;;;;;0.98;0.63;;;;;;;;;;5065556;28;20029;-62
2022/06/03 13:25:10;;;;;;;0.00;0.00;;;;;;;;;;5046690;28;20060;-61
2022/06/03 13:27:36;;;;;;;0.00;0.00;;;;;;;;;;5055976;28;20034;-63
2022/06/03 13:30:08;;;;;;;0.00;0.00;;;;;;;;;;5055742;28;20393;-60
2022/06/03 13:32:36;;;;;;;0.10;0.10;;;;;;;;;;5053864;28;20722;-61
2022/06/03 13:35:07;;;;;;;0.83;0.67;;;;;;;;;;5058931;28;20032;-61
2022/06/03 13:37:43;;;;;;;0.00;0.00;;;;;;;;;;5062094;28;21595;-61
2022/06/03 13:40:18;;;;;;;0.15;0.10;;;;;;;;;;5057443;28;20024;-61
2022/06/03 13:43:00;;;;;;;0.00;0.00;;;;;;;;;;5060438;28;20163;-62
2022/06/03 13:45:25;;;;;;;0.00;0.00;;;;;;;;;;5054617;28;20485;-62
2022/06/03 13:47:52;;;;;;;0.00;0.00;;;;;;;;;;5052189;28;20055;-61
2022/06/03 13:50:26;;;;;;;0.00;0.00;;;;;;;;;;5057060;28;20470;-62
2022/06/03 13:52:53;;;;;;;0.10;0.10;;;;;;;;;;5042483;28;20024;-62
2022/06/03 13:55:37;;;;;;;0.00;0.00;;;;;;;;;;5052728;28;20028;-62
2022/06/03 13:58:16;;;;;;;0.00;0.00;;;;;;;;;;5046501;28;20469;-62
2022/06/03 14:00:50;;;;;;;0.20;0.20;;;;;;;;;;5051847;28;20028;-62
2022/06/03 14:03:21;;;;;;;0.00;0.00;;;;;;;;;;5053246;28;20040;-60
2022/06/03 14:05:54;;;;;;;0.00;0.00;;;;;;;;;;5052387;28;20050;-61
2022/06/03 14:08:33;;;;;;;0.00;0.00;;;;;;;;;;5053533;28;20112;-60
2022/06/03 14:11:04;;;;;;;0.00;0.00;;;;;;;;;;5052932;28;20027;-61
2022/06/03 14:13:34;;;;;;;0.00;0.00;;;;;;;;;;5054266;28;20092;-61
2022/06/03 14:16:18;;;;;;;0.00;0.00;;;;;;;;;;5054031;28;20021;-62
2022/06/03 14:18:54;;;;;;;0.00;0.00;;;;;;;;;;5060142;28;20071;-62
2022/06/03 14:21:20;;;;;;;0.00;0.00;;;;;;;;;;5056752;28;20525;-61
2022/06/03 14:23:46;;;;;;;0.00;0.00;;;;;;;;;;5047560;28;20029;-60
2022/06/03 14:26:19;;;;;;;0.05;0.05;;;;;;;;;;5057197;28;20194;-61
2022/06/03 14:28:56;;;;;;;0.00;0.00;;;;;;;;;;5054598;28;20025;-61
2022/06/03 14:31:27;;;;;;;0.00;0.00;;;;;;;;;;5057899;28;20067;-61
2022/06/03 14:33:54;;;;;;;0.52;0.52;;;;;;;;;;5046904;28;20028;-61
2022/06/03 14:36:19;;;;;;;45.38;28.05;;;;;;;;;;5054397;28;20021;-61
2022/06/03 14:38:44;;;;;;;0.10;0.10;;;;;;;;;;5032479;28;20106;-62
2022/06/03 14:41:19;;;;;;;0.00;0.00;;;;;;;;;;5055113;28;20020;-60
2022/06/03 14:43:44;;;;;;;1.33;1.23;;;;;;;;;;5052928;28;20259;-60
2022/06/03 14:46:18;;;;;;;0.00;0.00;;;;;;;;;;5051843;28;20043;-60
2022/06/03 14:48:54;;;;;;;0.25;0.25;;;;;;;;;;5042575;28;20116;-60
2022/06/03 14:51:22;;;;;;;0.00;0.00;;;;;;;;;;5050732;28;20104;-59
2022/06/03 14:53:56;;;;;;;0.00;0.00;;;;;;;;;;5049596;28;20017;-59
2022/06/03 14:56:30;;;;;;;0.00;0.00;;;;;;;;;;5048082;28;20028;-59
2022/06/03 14:58:56;;;;;;;0.00;0.00;;;;;;;;;;5047064;28;20098;-60
2022/06/03 15:01:22;;;;;;;0.00;0.00;;;;;;;;;;5059889;28;20025;-59
2022/06/03 15:04:08;;;;;;;0.00;0.00;;;;;;;;;;5049951;28;20040;-60
2022/06/03 15:06:55;;;;;;;0.00;0.00;;;;;;;;;;5060622;28;20269;-61
2022/06/03 15:09:36;;;;;;;0.00;0.00;;;;;;;;;;5029720;28;20029;-60
2022/06/03 15:12:05;;;;;;;0.55;0.55;;;;;;;;;;5055595;28;20028;-60
2022/06/03 15:14:31;;;;;;;;;;;;;;;;;;5058894;28;20469;-61
2022/06/03 15:16:59;;;;;;;0.00;0.00;;;;;;;;;;5054627;28;20000;-61
2022/06/03 15:19:34;;;;;;;0.00;0.00;;;;;;;;;;5053981;28;20216;-61
2022/06/03 15:22:00;;;;;;;0.03;0.03;;;;;;;;;;5048727;28;20020;-60
2022/06/03 15:24:25;;;;;;;0.30;0.30;;;;;;;;;;5064559;28;20021;-61
2022/06/03 15:26:51;;;;;;;0.05;0.05;;;;;;;;;;5062726;28;20024;-60
2022/06/03 15:29:21;;;;;;;0.00;0.00;;;;;;;;;;5057578;28;20044;-61
2022/06/03 15:31:47;;;;;;;1.90;1.80;;;;;;;;;;5035294;28;20617;-60
2022/06/03 15:34:13;;;;;;;0.00;0.00;;;;;;;;;;5060806;28;20059;-60
2022/06/03 15:36:38;;;;;;;1.35;1.35;;;;;;;;;;5054906;28;20025;-61
2022/06/03 15:39:18;;;;;;;0.00;0.00;;;;;;;;;;5053685;28;20216;-61
2022/06/03 15:41:45;;;;;;;0.00;0.00;;;;;;;;;;5056767;28;20366;-59
2022/06/03 15:44:11;;;;;;;0.00;0.00;;;;;;;;;;5053598;28;20020;-61
2022/06/03 15:46:49;;;;;;;0.00;0.00;;;;;;;;;;5058501;28;20577;-61